createdAt,value
2018-09-29T00:01:03.760Z,4.87
2018-09-29T00:03:31.025Z,6.70
2018-09-29T00:05:58.238Z,6.47
2018-09-29T00:08:25.461Z,6.67
2018-09-29T00:10:55.150Z,3.70
2018-09-29T00:13:22.340Z,5.77
2018-09-29T00:15:49.557Z,6.50
2018-09-29T00:18:16.785Z,7.17
2018-09-29T00:20:44.010Z,5.53
2018-09-29T00:23:11.267Z,4.53
2018-09-29T00:25:38.525Z,5.70
2018-09-29T00:28:06.027Z,5.77
2018-09-29T00:30:33.237Z,4.47
2018-09-29T00:33:00.885Z,6.57
2018-09-29T00:35:28.100Z,6.13
2018-09-29T00:37:55.563Z,4.97
2018-09-29T00:40:22.817Z,5.30
2018-09-29T00:42:50.053Z,4.20
2018-09-29T00:45:17.289Z,4.73
2018-09-29T00:47:44.562Z,4.90
2018-09-29T00:50:11.845Z,4.73
2018-09-29T00:52:39.127Z,4.30
2018-09-29T00:55:06.480Z,11.70
2018-09-29T00:57:33.689Z,3.70
2018-09-29T01:00:00.920Z,4.20
2018-09-29T01:02:28.144Z,5.90
2018-09-29T01:04:55.390Z,7.00
2018-09-29T01:07:22.592Z,8.80
2018-09-29T01:09:49.861Z,5.17
2018-09-29T01:12:17.127Z,4.57
2018-09-29T01:14:44.361Z,7.30
2018-09-29T01:17:11.586Z,9.20
2018-09-29T01:19:38.821Z,5.97
2018-09-29T01:22:06.083Z,4.87
2018-09-29T01:24:33.302Z,6.10
2018-09-29T01:27:00.517Z,7.10
2018-09-29T01:29:27.760Z,6.23
2018-09-29T01:31:55.009Z,7.00
2018-09-29T01:34:22.211Z,6.80
2018-09-29T01:36:49.466Z,3.53
2018-09-29T01:39:16.677Z,6.40
2018-09-29T01:41:43.933Z,6.03
2018-09-29T01:44:11.172Z,7.73
2018-09-29T01:46:38.432Z,6.33
2018-09-29T01:49:05.610Z,8.97
2018-09-29T01:51:33.140Z,7.03
2018-09-29T01:54:00.436Z,5.37
2018-09-29T01:56:28.085Z,7.20
2018-09-29T01:58:55.284Z,5.40
2018-09-29T02:01:22.703Z,7.10
2018-09-29T02:03:49.908Z,6.73
2018-09-29T02:06:17.197Z,5.13
2018-09-29T02:08:44.654Z,8.27
2018-09-29T02:11:12.024Z,5.27
2018-09-29T02:13:39.316Z,9.63
2018-09-29T02:16:06.552Z,3.03
2018-09-29T02:18:33.879Z,9.33
2018-09-29T02:21:01.177Z,4.27
2018-09-29T02:23:28.411Z,5.40
2018-09-29T02:25:55.659Z,2.93
2018-09-29T02:28:22.938Z,4.87
2018-09-29T02:30:50.512Z,7.83
2018-09-29T02:33:17.751Z,4.10
2018-09-29T02:35:44.948Z,6.97
2018-09-29T02:38:12.193Z,6.50
2018-09-29T02:40:39.435Z,5.43
2018-09-29T02:43:06.656Z,2.77
2018-09-29T02:45:33.804Z,7.40
2018-09-29T02:48:01.044Z,4.87
2018-09-29T02:50:28.346Z,3.13
2018-09-29T02:52:55.609Z,3.17
2018-09-29T02:55:22.862Z,6.57
2018-09-29T02:57:50.093Z,5.03
2018-09-29T03:00:17.284Z,3.53
2018-09-29T03:02:44.512Z,6.13
2018-09-29T03:05:11.749Z,6.03
2018-09-29T03:07:38.996Z,4.60
2018-09-29T03:10:06.208Z,6.97
2018-09-29T03:12:33.496Z,6.13
2018-09-29T03:15:00.752Z,6.63
2018-09-29T03:17:28.002Z,3.67
2018-09-29T03:19:55.280Z,4.73
2018-09-29T03:22:22.514Z,3.70
2018-09-29T03:24:49.737Z,8.87
2018-09-29T03:27:16.960Z,7.47
2018-09-29T03:29:44.192Z,8.07
2018-09-29T03:32:11.408Z,4.90
2018-09-29T03:34:38.641Z,3.37
2018-09-29T03:37:06.017Z,4.83
2018-09-29T03:39:33.245Z,6.47
2018-09-29T03:42:00.474Z,7.87
2018-09-29T03:44:27.730Z,9.60
2018-09-29T03:46:54.941Z,4.23
2018-09-29T03:49:22.172Z,4.67
2018-09-29T03:51:49.418Z,8.20
2018-09-29T03:54:16.681Z,8.70
2018-09-29T03:56:43.902Z,10.13
2018-09-29T03:59:11.159Z,4.07
2018-09-29T04:01:38.385Z,8.27
2018-09-29T04:04:05.662Z,5.57
2018-09-29T04:06:32.888Z,6.23
2018-09-29T04:09:00.172Z,5.20
2018-09-29T04:11:27.378Z,6.27
2018-09-29T04:13:54.770Z,8.17
2018-09-29T04:16:21.921Z,6.17
2018-09-29T04:18:49.179Z,7.67
2018-09-29T04:21:16.405Z,5.63
2018-09-29T04:23:43.619Z,7.40
2018-09-29T04:26:10.850Z,5.67
2018-09-29T04:28:38.076Z,7.30
2018-09-29T04:31:05.409Z,6.60
2018-09-29T04:33:32.657Z,5.53
2018-09-29T04:35:59.920Z,6.47
2018-09-29T04:38:27.158Z,8.27
2018-09-29T04:40:54.398Z,4.87
2018-09-29T04:43:21.603Z,10.80
2018-09-29T04:45:48.832Z,5.90
2018-09-29T04:48:16.016Z,8.27
2018-09-29T04:50:43.229Z,6.73
2018-09-29T04:53:10.458Z,8.00
2018-09-29T04:55:37.710Z,7.07
2018-09-29T04:58:04.950Z,7.53
2018-09-29T05:00:32.162Z,9.83
2018-09-29T05:02:59.367Z,4.07
2018-09-29T05:05:26.660Z,5.30
2018-09-29T05:07:53.917Z,7.60
2018-09-29T05:10:21.990Z,5.07
2018-09-29T05:12:49.236Z,6.00
2018-09-29T05:15:16.470Z,7.30
2018-09-29T05:17:46.677Z,7.57
2018-09-29T05:20:13.903Z,10.07
2018-09-29T05:22:41.093Z,8.30
2018-09-29T05:25:08.343Z,7.00
2018-09-29T05:27:35.551Z,5.07
2018-09-29T05:30:02.817Z,6.63
2018-09-29T05:32:30.022Z,11.53
2018-09-29T05:34:57.176Z,7.40
2018-09-29T05:37:24.397Z,9.13
2018-09-29T05:39:51.633Z,7.93
2018-09-29T05:42:18.877Z,5.50
2018-09-29T05:44:48.970Z,6.47
2018-09-29T05:47:16.248Z,5.07
2018-09-29T05:49:43.469Z,5.20
2018-09-29T05:52:10.690Z,5.97
2018-09-29T05:54:37.864Z,11.93
2018-09-29T05:57:05.097Z,8.33
2018-09-29T05:59:32.304Z,7.17
2018-09-29T06:01:59.511Z,5.87
2018-09-29T06:04:27.269Z,7.00
2018-09-29T06:06:54.516Z,9.23
2018-09-29T06:09:21.742Z,7.00
2018-09-29T06:11:48.979Z,5.07
2018-09-29T06:14:17.002Z,9.50
2018-09-29T06:16:44.224Z,11.83
2018-09-29T06:19:11.452Z,10.77
2018-09-29T06:21:38.699Z,7.73
2018-09-29T06:24:09.685Z,7.70
2018-09-29T06:26:36.897Z,9.23
2018-09-29T06:29:04.077Z,9.23
2018-09-29T06:31:31.408Z,6.67
2018-09-29T06:33:58.663Z,7.20
2018-09-29T06:36:25.906Z,6.73
2018-09-29T06:38:53.142Z,5.73
2018-09-29T06:41:20.354Z,7.87
2018-09-29T06:43:47.613Z,6.20
2018-09-29T06:46:14.837Z,7.30
2018-09-29T06:48:42.065Z,7.40
2018-09-29T06:51:09.274Z,7.13
2018-09-29T06:53:36.651Z,3.97
2018-09-29T06:56:03.904Z,5.40
2018-09-29T06:58:31.109Z,13.23
2018-09-29T07:00:58.472Z,9.83
2018-09-29T07:03:26.705Z,9.87
2018-09-29T07:05:54.182Z,6.03
2018-09-29T07:08:21.396Z,6.07
2018-09-29T07:10:48.777Z,6.50
2018-09-29T07:13:15.933Z,8.67
2018-09-29T07:15:43.164Z,8.47
2018-09-29T07:18:10.385Z,7.13
2018-09-29T07:20:37.652Z,5.33
2018-09-29T07:23:05.069Z,8.83
2018-09-29T07:25:32.276Z,9.73
2018-09-29T07:27:59.470Z,5.90
2018-09-29T07:30:26.712Z,6.30
2018-09-29T07:32:53.936Z,5.60
2018-09-29T07:35:21.148Z,8.07
2018-09-29T07:37:48.374Z,7.00
2018-09-29T07:40:15.629Z,7.77
2018-09-29T07:42:42.860Z,6.87
2018-09-29T07:45:13.031Z,7.17
2018-09-29T07:47:40.269Z,8.70
2018-09-29T07:50:07.553Z,6.50
2018-09-29T07:52:34.854Z,4.90
2018-09-29T07:55:02.102Z,6.20
2018-09-29T07:57:29.364Z,8.77
2018-09-29T07:59:56.557Z,5.67
2018-09-29T08:02:23.789Z,5.10
2018-09-29T08:04:51.005Z,13.00
2018-09-29T08:07:18.257Z,3.87
2018-09-29T08:09:45.464Z,7.60
2018-09-29T08:12:12.720Z,4.30
2018-09-29T08:14:39.946Z,7.63
2018-09-29T08:17:07.173Z,6.87
2018-09-29T08:19:34.409Z,4.40
2018-09-29T08:22:01.637Z,5.60
2018-09-29T08:24:28.877Z,6.47
2018-09-29T08:26:56.076Z,7.17
2018-09-29T08:29:23.280Z,6.67
2018-09-29T08:31:50.581Z,9.67
2018-09-29T08:34:17.802Z,3.77
2018-09-29T08:36:45.044Z,5.90
2018-09-29T08:39:12.245Z,6.10
2018-09-29T08:41:39.483Z,3.70
2018-09-29T08:44:06.739Z,5.90
2018-09-29T08:46:34.116Z,6.17
2018-09-29T08:49:01.811Z,5.43
2018-09-29T08:51:29.041Z,4.03
2018-09-29T08:53:56.387Z,2.87
2018-09-29T08:56:23.645Z,4.67
2018-09-29T08:58:50.848Z,3.70
2018-09-29T09:01:18.168Z,5.17
2018-09-29T09:03:45.542Z,4.03
2018-09-29T09:06:13.517Z,6.47
2018-09-29T09:08:40.829Z,7.73
2018-09-29T09:11:08.232Z,6.20
2018-09-29T09:13:35.480Z,3.17
2018-09-29T09:16:02.896Z,4.00
2018-09-29T09:18:30.337Z,5.90
2018-09-29T09:20:57.572Z,3.97
2018-09-29T09:23:25.138Z,2.93
2018-09-29T09:25:52.351Z,6.00
2018-09-29T09:28:19.619Z,3.67
2018-09-29T09:30:47.817Z,7.07
2018-09-29T09:33:15.078Z,4.20
2018-09-29T09:35:42.297Z,4.12
2018-09-29T09:38:09.524Z,3.80
2018-09-29T09:40:36.771Z,3.90
2018-09-29T09:43:04.021Z,5.58
2018-09-29T09:45:31.264Z,1.47
2018-09-29T09:47:58.476Z,6.12
2018-09-29T09:50:25.749Z,3.98
2018-09-29T09:52:52.984Z,5.37
2018-09-29T09:55:20.294Z,3.55
2018-09-29T09:57:47.546Z,7.20
2018-09-29T10:00:14.782Z,3.75
2018-09-29T10:02:47.577Z,2.70
2018-09-29T10:05:14.841Z,5.87
2018-09-29T10:07:42.094Z,2.98
2018-09-29T10:10:09.498Z,2.80
2018-09-29T10:12:36.740Z,2.65
2018-09-29T10:15:04.009Z,1.72
2018-09-29T10:17:31.256Z,3.45
2018-09-29T10:19:58.534Z,4.40
2018-09-29T10:22:25.785Z,2.58
2018-09-29T10:24:53.057Z,5.10
2018-09-29T10:27:20.311Z,2.52
2018-09-29T10:29:47.573Z,2.90
2018-09-29T10:32:14.804Z,3.80
2018-09-29T10:34:42.024Z,2.58
2018-09-29T10:37:09.261Z,1.95
2018-09-29T10:39:36.507Z,2.52
2018-09-29T10:42:03.752Z,2.02
2018-09-29T10:44:31.372Z,5.87
2018-09-29T10:46:58.672Z,6.12
2018-09-29T10:49:26.012Z,4.00
2018-09-29T10:51:53.263Z,4.33
2018-09-29T10:54:20.543Z,5.90
2018-09-29T10:56:47.756Z,3.12
2018-09-29T10:59:15.091Z,4.08
2018-09-29T11:01:42.387Z,4.92
2018-09-29T11:04:09.596Z,3.70
2018-09-29T11:06:36.822Z,3.90
2018-09-29T11:09:05.246Z,2.40
2018-09-29T11:11:32.501Z,4.20
2018-09-29T11:13:59.689Z,2.52
2018-09-29T11:16:26.917Z,3.47
2018-09-29T11:18:54.205Z,2.65
2018-09-29T11:21:21.511Z,2.45
2018-09-29T11:23:48.737Z,2.45
2018-09-29T11:26:15.972Z,3.90
2018-09-29T11:28:43.205Z,3.70
2018-09-29T11:31:10.414Z,4.58
2018-09-29T11:33:37.681Z,2.55
2018-09-29T11:36:04.898Z,2.50
2018-09-29T11:38:32.182Z,2.85
2018-09-29T11:40:59.428Z,1.17
2018-09-29T11:43:26.668Z,3.02
2018-09-29T11:45:53.906Z,2.72
2018-09-29T11:48:21.222Z,2.42
2018-09-29T11:50:48.436Z,2.58
2018-09-29T11:53:15.722Z,2.60
2018-09-29T11:55:42.941Z,3.40
2018-09-29T11:58:10.183Z,3.70
2018-09-29T12:00:37.488Z,7.50
2018-09-29T12:03:07.686Z,1.85
2018-09-29T12:05:35.096Z,3.10
2018-09-29T12:08:02.434Z,4.47
2018-09-29T12:10:29.634Z,5.55
2018-09-29T12:12:56.920Z,4.47
2018-09-29T12:15:24.197Z,3.15
2018-09-29T12:17:51.428Z,3.30
2018-09-29T12:20:18.656Z,4.42
2018-09-29T12:22:45.868Z,3.42
2018-09-29T12:25:13.150Z,3.17
2018-09-29T12:27:40.408Z,2.95
2018-09-29T12:30:10.071Z,3.77
2018-09-29T12:32:37.335Z,2.42
2018-09-29T12:35:04.596Z,2.50
2018-09-29T12:37:31.916Z,1.95
2018-09-29T12:39:59.145Z,3.17
2018-09-29T12:42:26.365Z,3.08
2018-09-29T12:44:53.858Z,1.55
2018-09-29T12:47:21.225Z,4.30
2018-09-29T12:49:48.540Z,4.40
2018-09-29T12:52:15.812Z,7.08
2018-09-29T12:54:43.108Z,3.42
2018-09-29T12:57:10.300Z,2.95
2018-09-29T12:59:37.554Z,3.02
2018-09-29T13:02:04.873Z,3.30
2018-09-29T13:04:32.145Z,4.97
2018-09-29T13:06:59.375Z,3.17
2018-09-29T13:09:26.676Z,4.78
2018-09-29T13:11:54.008Z,4.78
2018-09-29T13:14:21.225Z,1.80
2018-09-29T13:16:48.510Z,2.17
2018-09-29T13:19:15.687Z,2.50
2018-09-29T13:21:42.922Z,1.62
2018-09-29T13:24:10.124Z,3.52
2018-09-29T13:26:37.351Z,4.75
2018-09-29T13:29:04.564Z,2.17
2018-09-29T13:31:31.792Z,2.67
2018-09-29T13:33:59.520Z,3.20
2018-09-29T13:36:26.739Z,2.65
2018-09-29T13:38:53.961Z,2.12
2018-09-29T13:41:21.231Z,4.08
2018-09-29T13:43:48.475Z,2.10
2018-09-29T13:46:15.702Z,4.58
2018-09-29T13:48:42.909Z,2.58
2018-09-29T13:51:10.131Z,2.87
2018-09-29T13:53:37.347Z,4.37
2018-09-29T13:56:04.677Z,3.08
2018-09-29T13:58:31.954Z,4.33
2018-09-29T14:00:59.204Z,2.00
2018-09-29T14:03:26.429Z,2.55
2018-09-29T14:05:53.780Z,2.33
2018-09-29T14:08:21.144Z,2.90
2018-09-29T14:10:48.552Z,4.25
2018-09-29T14:13:15.941Z,2.30
2018-09-29T14:15:43.140Z,4.35
2018-09-29T14:18:10.402Z,3.20
2018-09-29T14:20:37.611Z,2.40
2018-09-29T14:23:04.875Z,4.20
2018-09-29T14:25:32.100Z,3.42
2018-09-29T14:27:59.349Z,5.12
2018-09-29T14:30:26.597Z,3.12
2018-09-29T14:32:53.895Z,4.78
2018-09-29T14:35:21.351Z,4.37
2018-09-29T14:37:48.602Z,3.35
2018-09-29T14:40:15.859Z,2.92
2018-09-29T14:42:43.121Z,4.25
2018-09-29T14:45:10.421Z,3.17
2018-09-29T14:47:37.608Z,2.67
2018-09-29T14:50:04.866Z,2.55
2018-09-29T14:52:32.110Z,2.12
2018-09-29T14:54:59.365Z,3.47
2018-09-29T14:57:26.609Z,4.62
2018-09-29T14:59:54.324Z,3.22
2018-09-29T15:02:21.589Z,2.20
2018-09-29T15:04:48.868Z,2.30
2018-09-29T15:07:16.093Z,1.85
2018-09-29T15:09:43.358Z,3.87
2018-09-29T15:12:10.607Z,3.60
2018-09-29T15:14:38.072Z,2.15
2018-09-29T15:17:05.324Z,2.98
2018-09-29T15:19:32.614Z,1.95
2018-09-29T15:21:59.889Z,2.05
2018-09-29T15:24:27.132Z,5.00
2018-09-29T15:26:54.413Z,2.77
2018-09-29T15:29:21.782Z,2.02
2018-09-29T15:31:49.040Z,3.77
2018-09-29T15:34:16.266Z,4.65
2018-09-29T15:36:43.502Z,4.50
2018-09-29T15:39:11.511Z,3.27
2018-09-29T15:41:38.912Z,2.08
2018-09-29T15:44:06.366Z,3.40
2018-09-29T15:46:33.679Z,3.80
2018-09-29T15:49:00.951Z,4.78
2018-09-29T15:51:28.191Z,3.17
2018-09-29T15:53:55.422Z,1.72
2018-09-29T15:56:22.629Z,2.08
2018-09-29T15:58:49.851Z,3.17
2018-09-29T16:01:17.105Z,1.83
2018-09-29T16:03:44.316Z,1.40
2018-09-29T16:06:11.573Z,3.23
2018-09-29T16:08:38.818Z,4.77
2018-09-29T16:11:06.123Z,4.60
2018-09-29T16:13:33.350Z,1.87
2018-09-29T16:16:00.604Z,2.70
2018-09-29T16:18:27.825Z,1.87
2018-09-29T16:20:55.028Z,2.40
2018-09-29T16:23:22.236Z,2.07
2018-09-29T16:25:49.501Z,6.00
2018-09-29T16:28:21.308Z,2.33
2018-09-29T16:30:53.067Z,4.60
2018-09-29T16:33:21.762Z,13.33
2018-09-29T16:35:49.126Z,8.23
2018-09-29T16:38:16.415Z,4.87
2018-09-29T16:40:47.756Z,5.73
2018-09-29T16:43:15.170Z,6.00
2018-09-29T16:45:42.423Z,4.37
2018-09-29T16:48:09.731Z,5.37
2018-09-29T16:50:37.036Z,3.93
2018-09-29T16:53:04.337Z,6.30
2018-09-29T16:55:31.637Z,5.60
2018-09-29T16:57:58.867Z,6.70
2018-09-29T17:00:26.739Z,4.67
2018-09-29T17:02:54.014Z,4.90
2018-09-29T17:05:23.600Z,7.97
2018-09-29T17:07:50.872Z,4.70
2018-09-29T17:10:18.090Z,5.37
2018-09-29T17:12:45.346Z,5.10
2018-09-29T17:15:12.552Z,7.60
2018-09-29T17:17:39.832Z,3.53
2018-09-29T17:20:07.105Z,3.13
2018-09-29T17:22:34.360Z,5.67
2018-09-29T17:25:01.593Z,2.57
2018-09-29T17:27:28.853Z,3.97
2018-09-29T17:29:56.118Z,5.23
2018-09-29T17:32:23.406Z,3.70
2018-09-29T17:34:50.961Z,4.37
2018-09-29T17:37:18.317Z,7.67
2018-09-29T17:39:45.584Z,4.97
2018-09-29T17:42:12.816Z,4.60
2018-09-29T17:44:40.025Z,4.07
2018-09-29T17:47:07.274Z,3.37
2018-09-29T17:49:34.653Z,4.50
2018-09-29T17:52:01.919Z,3.77
2018-09-29T17:54:29.303Z,3.33
2018-09-29T17:56:56.541Z,6.17
2018-09-29T17:59:26.833Z,6.00
2018-09-29T18:01:54.205Z,3.23
2018-09-29T18:04:21.518Z,4.87
2018-09-29T18:06:49.021Z,5.77
2018-09-29T18:09:16.293Z,3.53
2018-09-29T18:11:43.573Z,3.13
2018-09-29T18:14:10.805Z,3.60
2018-09-29T18:16:38.184Z,5.87
2018-09-29T18:19:05.457Z,7.40
2018-09-29T18:21:32.760Z,7.33
2018-09-29T18:23:59.991Z,6.87
2018-09-29T18:26:27.204Z,3.63
2018-09-29T18:28:54.625Z,2.27
2018-09-29T18:31:21.956Z,4.63
2018-09-29T18:33:49.225Z,3.40
2018-09-29T18:36:16.536Z,6.97
2018-09-29T18:38:43.765Z,2.70
2018-09-29T18:41:10.968Z,4.80
2018-09-29T18:43:38.201Z,5.77
2018-09-29T18:46:05.405Z,5.53
2018-09-29T18:48:32.711Z,6.37
2018-09-29T18:51:00.136Z,3.87
2018-09-29T18:53:27.356Z,5.07
2018-09-29T18:55:54.561Z,4.03
2018-09-29T18:58:21.829Z,4.43
2018-09-29T19:00:49.109Z,4.47
2018-09-29T19:03:16.304Z,5.73
2018-09-29T19:05:43.468Z,4.50
2018-09-29T19:08:10.758Z,5.33
2018-09-29T19:10:37.999Z,4.60
2018-09-29T19:13:05.228Z,6.70
2018-09-29T19:15:32.497Z,13.03
2018-09-29T19:17:59.757Z,9.10
2018-09-29T19:20:27.008Z,5.27
2018-09-29T19:22:54.236Z,4.43
2018-09-29T19:25:21.484Z,3.83
2018-09-29T19:27:49.286Z,4.37
2018-09-29T19:30:16.536Z,3.47
2018-09-29T19:32:43.778Z,4.57
2018-09-29T19:35:11.011Z,4.97
2018-09-29T19:37:38.265Z,5.93
2018-09-29T19:40:05.938Z,5.07
2018-09-29T19:42:33.328Z,5.23
2018-09-29T19:45:00.515Z,10.30
2018-09-29T19:47:27.718Z,10.00
2018-09-29T19:49:54.980Z,10.57
2018-09-29T19:52:22.230Z,11.67
2018-09-29T19:54:49.448Z,11.63
2018-09-29T19:57:16.684Z,12.23
2018-09-29T19:59:43.983Z,13.30
2018-09-29T20:02:11.201Z,10.80
2018-09-29T20:04:38.392Z,11.33
2018-09-29T20:07:05.679Z,14.60
2018-09-29T20:09:32.906Z,18.40
2018-09-29T20:12:00.245Z,15.73
2018-09-29T20:14:27.547Z,23.57
2018-09-29T20:16:54.760Z,21.63
2018-09-29T20:19:22.056Z,15.03
2018-09-29T20:21:49.350Z,10.40
2018-09-29T20:24:16.543Z,12.23
2018-09-29T20:26:43.771Z,10.83
2018-09-29T20:29:11.011Z,8.90
2018-09-29T20:31:38.293Z,11.60
2018-09-29T20:34:05.609Z,9.23
2018-09-29T20:36:32.844Z,7.23
2018-09-29T20:39:00.111Z,9.63
2018-09-29T20:41:27.374Z,9.40
2018-09-29T20:43:54.637Z,9.50
2018-09-29T20:46:21.867Z,9.60
2018-09-29T20:48:49.128Z,9.63
2018-09-29T20:51:16.332Z,21.13
2018-09-29T20:53:43.816Z,9.10
2018-09-29T20:56:11.045Z,10.10
2018-09-29T20:58:38.340Z,11.93
2018-09-29T21:01:05.566Z,12.77
2018-09-29T21:03:32.803Z,12.10
2018-09-29T21:06:00.352Z,10.23
2018-09-29T21:08:27.585Z,11.40
2018-09-29T21:10:54.827Z,10.47
2018-09-29T21:13:22.142Z,15.60
2018-09-29T21:15:49.320Z,12.43
2018-09-29T21:18:16.720Z,10.43
2018-09-29T21:20:43.882Z,10.90
2018-09-29T21:23:11.126Z,10.67
2018-09-29T21:25:38.336Z,13.07
2018-09-29T21:28:05.585Z,12.53
2018-09-29T21:30:32.977Z,14.80
2018-09-29T21:33:00.233Z,17.30
2018-09-29T21:35:27.450Z,17.40
2018-09-29T21:37:54.660Z,11.47
2018-09-29T21:40:21.904Z,14.10
2018-09-29T21:42:49.110Z,16.80
2018-09-29T21:45:16.329Z,15.63
2018-09-29T21:47:43.552Z,13.47
2018-09-29T21:50:10.799Z,18.80
2018-09-29T21:52:38.057Z,12.83
2018-09-29T21:55:05.375Z,16.67
2018-09-29T21:57:32.605Z,17.20
2018-09-29T21:59:59.848Z,26.80
2018-09-29T22:02:27.045Z,23.23
2018-09-29T22:04:54.319Z,24.20
2018-09-29T22:07:21.565Z,21.83
2018-09-29T22:09:49.016Z,20.57
2018-09-29T22:12:16.274Z,18.73
2018-09-29T22:14:43.845Z,21.13
2018-09-29T22:17:11.022Z,15.27
2018-09-29T22:19:38.255Z,15.93
2018-09-29T22:22:05.518Z,19.50
2018-09-29T22:24:32.762Z,21.83
2018-09-29T22:26:59.988Z,14.00
2018-09-29T22:29:27.504Z,18.57
2018-09-29T22:31:56.937Z,14.87
2018-09-29T22:34:24.165Z,14.37
2018-09-29T22:36:51.380Z,13.70
2018-09-29T22:39:18.581Z,15.63
2018-09-29T22:41:45.835Z,16.80
2018-09-29T22:44:13.248Z,19.20
2018-09-29T22:46:40.538Z,14.33
2018-09-29T22:49:07.776Z,13.50
2018-09-29T22:51:35.038Z,10.17
2018-09-29T22:54:02.259Z,14.57
2018-09-29T22:56:29.524Z,11.73
2018-09-29T22:58:57.086Z,13.07
2018-09-29T23:01:24.304Z,13.73
2018-09-29T23:03:51.589Z,10.23
2018-09-29T23:06:18.842Z,9.97
2018-09-29T23:08:46.079Z,10.10
2018-09-29T23:11:13.316Z,8.37
2018-09-29T23:13:40.581Z,8.40
2018-09-29T23:16:07.851Z,10.03
2018-09-29T23:18:35.056Z,9.07
2018-09-29T23:21:02.250Z,12.50
2018-09-29T23:23:29.456Z,8.10
2018-09-29T23:25:56.736Z,8.17
2018-09-29T23:28:23.932Z,12.20
2018-09-29T23:30:51.177Z,10.43
2018-09-29T23:33:18.418Z,9.80
2018-09-29T23:35:45.671Z,7.60
2018-09-29T23:38:12.878Z,7.43
2018-09-29T23:40:40.084Z,13.57
2018-09-29T23:43:07.335Z,10.83
2018-09-29T23:45:34.591Z,7.40
2018-09-29T23:48:01.835Z,9.30
2018-09-29T23:50:29.053Z,8.00
2018-09-29T23:52:56.301Z,11.83
2018-09-29T23:55:23.534Z,7.93
2018-09-29T23:57:50.807Z,6.50
